createdAt,value
2019-04-07T00:00:09.245Z,85.00
2019-04-07T00:02:37.707Z,82.72
2019-04-07T00:05:12.534Z,80.30
2019-04-07T00:07:37.919Z,82.20
2019-04-07T00:10:09.855Z,81.32
2019-04-07T00:12:38.413Z,81.12
2019-04-07T00:15:07.180Z,75.90
2019-04-07T00:17:36.157Z,86.55
2019-04-07T00:20:06.630Z,81.28
2019-04-07T00:22:36.764Z,76.95
2019-04-07T00:25:06.089Z,78.95
2019-04-07T00:27:34.597Z,79.03
2019-04-07T00:30:04.157Z,76.10
2019-04-07T00:32:32.797Z,83.82
2019-04-07T00:35:01.302Z,72.75
2019-04-07T00:37:31.069Z,86.70
2019-04-07T00:39:59.991Z,86.75
2019-04-07T00:42:29.178Z,79.37
2019-04-07T00:44:58.628Z,75.22
2019-04-07T00:47:27.492Z,84.07
2019-04-07T00:49:56.148Z,80.77
2019-04-07T00:52:27.331Z,81.78
2019-04-07T00:54:56.199Z,77.92
2019-04-07T00:57:25.216Z,81.63
2019-04-07T00:59:54.231Z,79.25
2019-04-07T01:02:23.230Z,80.60
2019-04-07T01:04:51.940Z,84.40
2019-04-07T01:07:20.663Z,87.47
2019-04-07T01:09:49.496Z,85.75
2019-04-07T01:12:18.267Z,81.32
2019-04-07T01:14:47.102Z,79.20
2019-04-07T01:17:15.748Z,85.38
2019-04-07T01:19:45.416Z,87.57
2019-04-07T01:22:14.418Z,83.20
2019-04-07T01:24:44.205Z,80.42
2019-04-07T01:27:13.170Z,93.05
2019-04-07T01:29:41.930Z,91.17
2019-04-07T01:32:10.552Z,90.90
2019-04-07T01:34:39.429Z,86.17
2019-04-07T01:37:08.745Z,91.30
2019-04-07T01:39:37.343Z,83.45
2019-04-07T01:42:09.184Z,85.28
2019-04-07T01:47:15.094Z,81.78
2019-04-07T01:49:45.223Z,83.27
2019-04-07T01:52:24.481Z,80.22
2019-04-07T01:55:11.371Z,84.92
2019-04-07T01:57:58.168Z,83.58
2019-04-07T02:00:44.613Z,89.47
2019-04-07T02:03:33.200Z,88.10
2019-04-07T02:06:04.976Z,87.00
2019-04-07T02:14:03.921Z,87.60
2019-04-07T02:16:36.806Z,84.20
2019-04-07T02:19:22.681Z,85.72
2019-04-07T02:22:11.109Z,88.17
2019-04-07T02:27:23.088Z,87.27
2019-04-07T02:29:59.106Z,91.63
2019-04-07T02:32:36.166Z,95.85
2019-04-07T02:35:17.179Z,86.28
2019-04-07T02:37:54.637Z,87.92
2019-04-07T02:40:31.755Z,83.95
2019-04-07T02:43:12.410Z,88.27
2019-04-07T02:45:43.471Z,89.40
2019-04-07T02:48:29.664Z,89.72
2019-04-07T02:51:15.835Z,96.75
2019-04-07T02:53:53.192Z,90.85
2019-04-07T02:56:42.357Z,95.53
2019-04-07T02:59:29.210Z,90.57
2019-04-07T03:01:59.794Z,93.47
2019-04-07T03:04:33.016Z,89.67
2019-04-07T03:07:06.825Z,95.47
2019-04-07T03:09:44.002Z,91.70
2019-04-07T03:12:30.695Z,84.25
2019-04-07T03:15:13.134Z,83.90
2019-04-07T03:17:46.119Z,89.20
2019-04-07T03:20:32.918Z,87.55
2019-04-07T03:23:18.926Z,82.27
2019-04-07T03:26:00.714Z,82.05
2019-04-07T03:28:40.023Z,85.17
2019-04-07T03:31:27.290Z,79.00
2019-04-07T03:33:59.553Z,91.47
2019-04-07T03:37:09.640Z,87.95
2019-04-07T03:39:24.500Z,84.77
2019-04-07T03:42:06.548Z,86.47
2019-04-07T03:47:20.007Z,86.32
2019-04-07T03:50:08.958Z,86.35
2019-04-07T03:53:10.189Z,81.97
2019-04-07T03:55:43.735Z,101.65
2019-04-07T03:58:19.943Z,84.37
2019-04-07T04:01:17.517Z,89.00
2019-04-07T04:03:48.372Z,89.03
2019-04-07T04:06:35.305Z,94.45
2019-04-07T04:09:17.423Z,97.57
2019-04-07T04:11:51.589Z,82.27
2019-04-07T04:14:28.005Z,89.58
2019-04-07T04:16:56.897Z,96.42
2019-04-07T04:19:27.543Z,81.40
2019-04-07T04:21:56.815Z,87.10
2019-04-07T04:24:26.489Z,85.75
2019-04-07T04:26:55.193Z,85.32
2019-04-07T04:29:26.514Z,86.85
2019-04-07T04:31:55.700Z,81.80
2019-04-07T04:34:25.010Z,93.95
2019-04-07T04:36:54.479Z,82.15
2019-04-07T04:39:23.223Z,80.95
2019-04-07T04:41:52.040Z,85.70
2019-04-07T04:44:21.886Z,75.42
2019-04-07T04:46:50.999Z,77.40
2019-04-07T04:49:19.974Z,81.40
2019-04-07T04:51:50.133Z,73.40
2019-04-07T04:54:21.200Z,75.12
2019-04-07T04:56:50.346Z,78.55
2019-04-07T04:59:19.153Z,81.15
2019-04-07T05:01:47.838Z,74.03
2019-04-07T05:04:17.360Z,85.05
2019-04-07T05:06:46.493Z,78.62
2019-04-07T05:09:15.136Z,78.45
2019-04-07T05:11:43.809Z,84.65
2019-04-07T05:14:12.336Z,82.88
2019-04-07T05:16:40.755Z,84.20
2019-04-07T05:19:09.791Z,83.37
2019-04-07T05:21:38.247Z,84.35
2019-04-07T05:24:06.870Z,83.20
2019-04-07T05:26:35.769Z,85.57
2019-04-07T05:29:04.744Z,84.97
2019-04-07T05:31:33.702Z,74.92
2019-04-07T05:34:02.833Z,72.70
2019-04-07T05:36:33.393Z,75.05
2019-04-07T05:39:02.088Z,68.50
2019-04-07T05:41:31.233Z,59.18
2019-04-07T05:43:59.801Z,61.20
2019-04-07T05:46:28.400Z,57.93
2019-04-07T05:48:57.569Z,62.78
2019-04-07T05:51:29.931Z,56.98
2019-04-07T05:53:57.055Z,58.30
2019-04-07T05:56:28.325Z,58.05
2019-04-07T05:58:56.231Z,56.18
2019-04-07T06:01:24.915Z,56.25
2019-04-07T06:03:54.282Z,52.08
2019-04-07T06:06:24.535Z,54.75
2019-04-07T06:08:53.068Z,48.80
2019-04-07T06:11:21.758Z,56.63
2019-04-07T06:13:50.514Z,56.75
2019-04-07T06:16:21.026Z,53.42
2019-04-07T06:18:50.072Z,54.75
2019-04-07T06:21:18.808Z,47.13
2019-04-07T06:23:47.389Z,50.20
2019-04-07T06:26:17.201Z,57.65
2019-04-07T06:28:51.176Z,49.85
2019-04-07T06:31:15.995Z,50.88
2019-04-07T06:33:49.942Z,47.88
2019-04-07T06:36:20.204Z,52.38
2019-04-07T06:38:51.804Z,51.58
2019-04-07T06:41:20.311Z,49.80
2019-04-07T06:43:49.601Z,48.23
2019-04-07T06:46:22.634Z,48.13
2019-04-07T06:51:37.311Z,48.85
2019-04-07T06:54:20.994Z,47.83
2019-04-07T06:56:53.847Z,47.55
2019-04-07T06:59:27.262Z,45.95
2019-04-07T07:02:02.229Z,48.68
2019-04-07T07:04:35.524Z,46.53
2019-04-07T07:07:08.944Z,54.33
2019-04-07T07:09:52.008Z,56.00
2019-04-07T07:12:39.922Z,51.02
2019-04-07T07:15:14.581Z,53.08
2019-04-07T07:17:51.893Z,50.98
2019-04-07T07:20:28.661Z,49.98
2019-04-07T07:23:00.358Z,52.05
2019-04-07T07:25:29.783Z,49.48
2019-04-07T07:27:58.728Z,51.73
2019-04-07T07:30:28.237Z,44.35
2019-04-07T07:32:56.871Z,48.60
2019-04-07T07:35:25.618Z,46.75
2019-04-07T07:37:57.430Z,45.60
2019-04-07T07:40:25.374Z,44.58
2019-04-07T07:42:56.674Z,46.15
2019-04-07T07:45:25.024Z,44.18
2019-04-07T07:47:55.012Z,43.98
2019-04-07T07:50:24.471Z,44.53
2019-04-07T07:52:54.624Z,44.27
2019-04-07T07:55:23.554Z,52.98
2019-04-07T07:57:56.825Z,46.37
2019-04-07T08:00:22.302Z,45.50
2019-04-07T08:02:52.591Z,40.67
2019-04-07T08:05:21.524Z,42.62
2019-04-07T08:07:51.035Z,40.23
2019-04-07T08:10:25.051Z,36.58
2019-04-07T08:12:53.149Z,40.45
2019-04-07T08:15:25.450Z,35.50
2019-04-07T08:17:53.067Z,38.50
2019-04-07T08:20:23.156Z,32.67
2019-04-07T08:22:51.638Z,31.42
2019-04-07T08:25:22.284Z,33.73
2019-04-07T08:27:50.830Z,33.98
2019-04-07T08:30:19.494Z,32.95
2019-04-07T08:32:47.947Z,29.65
2019-04-07T08:35:16.593Z,30.35
2019-04-07T08:37:47.116Z,28.73
2019-04-07T08:40:15.379Z,28.45
2019-04-07T08:42:48.210Z,31.57
2019-04-07T08:45:15.864Z,28.92
2019-04-07T08:47:47.458Z,27.30
2019-04-07T08:50:15.209Z,28.55
2019-04-07T08:52:43.923Z,25.62
2019-04-07T08:55:12.864Z,25.75
2019-04-07T08:57:42.324Z,26.35
2019-04-07T09:00:16.216Z,23.90
2019-04-07T09:02:43.815Z,28.62
2019-04-07T09:05:12.988Z,30.90
2019-04-07T09:07:42.259Z,28.85
2019-04-07T09:10:12.643Z,27.65
2019-04-07T09:12:42.878Z,25.60
2019-04-07T09:15:13.284Z,25.62
2019-04-07T09:17:47.519Z,30.97
2019-04-07T09:20:24.364Z,27.00
2019-04-07T09:22:56.106Z,29.50
2019-04-07T09:25:43.578Z,34.78
2019-04-07T09:28:24.036Z,29.30
2019-04-07T09:31:07.386Z,29.07
2019-04-07T09:33:54.030Z,28.45
2019-04-07T09:36:24.644Z,27.17
2019-04-07T09:39:01.812Z,27.10
2019-04-07T09:41:46.834Z,24.67
2019-04-07T09:44:17.332Z,22.10
2019-04-07T09:46:50.276Z,30.20
2019-04-07T09:49:28.756Z,28.98
2019-04-07T09:52:02.488Z,29.75
2019-04-07T09:54:51.805Z,29.23
2019-04-07T09:57:22.615Z,27.22
2019-04-07T10:00:08.648Z,31.90
2019-04-07T10:02:39.425Z,27.95
2019-04-07T10:05:11.303Z,13.03
2019-04-07T10:07:54.433Z,13.95
2019-04-07T10:10:24.853Z,19.30
2019-04-07T10:13:00.733Z,29.92
2019-04-07T10:15:48.980Z,25.32
2019-04-07T10:18:22.890Z,25.50
2019-04-07T10:20:53.369Z,25.10
2019-04-07T10:23:42.062Z,19.92
2019-04-07T10:26:15.679Z,23.70
2019-04-07T10:28:55.346Z,23.27
2019-04-07T10:31:42.185Z,21.15
2019-04-07T10:34:15.013Z,19.57
2019-04-07T10:37:05.003Z,16.60
2019-04-07T10:39:46.946Z,10.03
2019-04-07T10:42:20.231Z,9.43
2019-04-07T10:45:02.176Z,9.45
2019-04-07T10:47:32.472Z,8.83
2019-04-07T10:50:06.981Z,8.45
2019-04-07T10:52:40.287Z,11.30
2019-04-07T10:55:14.124Z,8.78
2019-04-07T10:57:44.708Z,9.40
2019-04-07T11:00:15.800Z,8.53
2019-04-07T11:02:46.238Z,9.35
2019-04-07T11:05:28.829Z,9.33
2019-04-07T11:08:02.461Z,8.38
2019-04-07T11:10:39.145Z,8.50
2019-04-07T11:13:25.153Z,10.03
2019-04-07T11:16:01.714Z,10.65
2019-04-07T11:18:40.958Z,9.90
2019-04-07T11:21:13.071Z,11.63
2019-04-07T11:24:02.086Z,11.57
2019-04-07T11:26:41.792Z,15.35
2019-04-07T11:29:21.195Z,9.33
2019-04-07T11:32:08.643Z,9.40
2019-04-07T11:34:54.930Z,10.70
2019-04-07T11:37:25.070Z,10.40
2019-04-07T11:40:00.981Z,10.38
2019-04-07T11:42:33.827Z,10.00
2019-04-07T11:45:19.408Z,11.18
2019-04-07T11:48:01.685Z,10.00
2019-04-07T11:50:42.520Z,10.23
2019-04-07T11:53:13.428Z,10.73
2019-04-07T11:55:47.290Z,10.28
2019-04-07T11:58:24.018Z,9.95
2019-04-07T12:01:12.772Z,10.30
2019-04-07T12:03:46.410Z,10.03
2019-04-07T12:06:17.995Z,11.57
2019-04-07T12:08:54.602Z,11.88
2019-04-07T12:11:25.307Z,11.88
2019-04-07T12:13:58.701Z,10.00
2019-04-07T12:16:31.948Z,11.73
2019-04-07T12:19:11.647Z,10.38
2019-04-07T12:21:49.290Z,11.48
2019-04-07T12:24:36.249Z,11.05
2019-04-07T12:27:11.659Z,13.28
2019-04-07T12:29:47.236Z,12.88
2019-04-07T12:32:19.146Z,12.60
2019-04-07T12:34:54.965Z,11.50
2019-04-07T12:37:39.233Z,8.80
2019-04-07T12:40:20.498Z,9.38
2019-04-07T12:42:48.421Z,10.68
2019-04-07T12:45:19.093Z,10.43
2019-04-07T12:48:06.046Z,9.93
2019-04-07T12:50:52.518Z,10.98
2019-04-07T12:53:32.116Z,10.75
2019-04-07T12:56:09.794Z,9.33
2019-04-07T12:58:55.878Z,10.18
2019-04-07T13:01:27.007Z,9.00
2019-04-07T13:03:57.570Z,9.68
2019-04-07T13:06:33.606Z,9.73
2019-04-07T13:09:21.451Z,8.68
2019-04-07T13:11:55.912Z,8.88
2019-04-07T13:14:29.511Z,7.85
2019-04-07T13:17:01.689Z,8.88
2019-04-07T13:19:46.096Z,9.95
2019-04-07T13:22:16.278Z,8.58
2019-04-07T13:24:48.502Z,11.00
2019-04-07T13:27:38.845Z,9.78
2019-04-07T13:30:27.058Z,8.35
2019-04-07T13:33:02.961Z,9.33
2019-04-07T13:35:32.936Z,9.20
2019-04-07T13:38:12.141Z,8.68
2019-04-07T13:40:48.973Z,8.15
2019-04-07T13:43:31.135Z,8.98
2019-04-07T13:46:24.479Z,8.58
2019-04-07T13:48:58.851Z,9.18
2019-04-07T13:51:29.083Z,9.63
2019-04-07T13:54:00.831Z,8.90
2019-04-07T13:56:35.382Z,8.38
2019-04-07T13:59:08.390Z,10.32
2019-04-07T14:01:38.616Z,9.58
2019-04-07T14:04:25.172Z,8.80
2019-04-07T14:06:58.833Z,11.60
2019-04-07T14:09:41.728Z,9.70
2019-04-07T14:12:18.998Z,10.03
2019-04-07T14:15:05.332Z,11.83
2019-04-07T14:17:49.242Z,10.72
2019-04-07T14:20:21.549Z,8.43
2019-04-07T14:22:55.538Z,9.85
2019-04-07T14:25:31.330Z,10.08
2019-04-07T14:28:17.912Z,10.10
2019-04-07T14:30:54.277Z,10.18
2019-04-07T14:33:41.484Z,11.53
2019-04-07T14:36:30.191Z,11.68
2019-04-07T14:39:04.066Z,12.13
2019-04-07T14:41:47.333Z,12.58
2019-04-07T14:44:22.475Z,12.33
2019-04-07T14:46:55.638Z,14.18
2019-04-07T14:49:31.827Z,16.02
2019-04-07T14:52:21.001Z,17.00
2019-04-07T14:55:04.858Z,15.80
2019-04-07T14:57:41.563Z,15.20
2019-04-07T15:00:12.580Z,16.40
2019-04-07T15:02:41.170Z,20.00
2019-04-07T15:05:23.158Z,15.55
2019-04-07T15:07:57.894Z,15.77
2019-04-07T15:10:30.807Z,17.95
2019-04-07T15:13:10.725Z,18.02
2019-04-07T15:15:39.982Z,16.95
2019-04-07T15:18:09.635Z,14.18
2019-04-07T15:20:39.155Z,15.55
2019-04-07T15:23:08.995Z,15.45
2019-04-07T15:25:40.623Z,18.05
2019-04-07T15:28:10.985Z,15.08
2019-04-07T15:33:11.572Z,18.57
2019-04-07T15:35:40.627Z,14.73
2019-04-07T15:38:10.933Z,17.55
2019-04-07T15:40:39.690Z,14.98
2019-04-07T15:43:10.950Z,16.37
2019-04-07T15:45:39.779Z,16.00
2019-04-07T15:48:12.382Z,15.75
2019-04-07T15:50:41.740Z,19.62
2019-04-07T15:53:13.517Z,17.95
2019-04-07T15:55:49.703Z,16.82
2019-04-07T15:58:11.780Z,16.52
2019-04-07T16:00:40.880Z,18.07
2019-04-07T16:03:12.752Z,15.28
2019-04-07T16:05:42.757Z,17.57
2019-04-07T16:08:11.667Z,17.00
2019-04-07T16:10:41.377Z,17.75
2019-04-07T16:13:10.841Z,22.13
2019-04-07T16:15:43.614Z,18.95
2019-04-07T16:18:10.609Z,24.57
2019-04-07T16:20:40.352Z,22.95
2019-04-07T16:23:10.435Z,19.50
2019-04-07T16:25:40.613Z,20.10
2019-04-07T16:28:13.223Z,20.88
2019-04-07T16:30:40.770Z,21.97
2019-04-07T16:33:09.976Z,23.45
2019-04-07T16:35:39.847Z,23.77
2019-04-07T16:38:09.515Z,20.75
2019-04-07T16:40:41.933Z,22.25
2019-04-07T16:43:15.055Z,21.45
2019-04-07T16:45:44.132Z,19.70
2019-04-07T16:48:11.276Z,21.82
2019-04-07T16:50:39.900Z,22.80
2019-04-07T16:53:09.223Z,18.77
2019-04-07T16:55:41.581Z,23.15
2019-04-07T16:58:11.544Z,19.82
2019-04-07T17:00:40.389Z,28.10
2019-04-07T17:03:09.862Z,20.20
2019-04-07T17:05:39.546Z,21.77
2019-04-07T17:08:08.574Z,20.75
2019-04-07T17:10:37.678Z,23.07
2019-04-07T17:13:16.856Z,20.27
2019-04-07T17:15:39.579Z,19.07
2019-04-07T17:18:09.673Z,19.37
2019-04-07T17:20:38.398Z,21.25
2019-04-07T17:23:07.234Z,23.57
2019-04-07T17:25:36.328Z,25.88
2019-04-07T17:28:06.429Z,22.95
2019-04-07T17:30:38.011Z,22.27
2019-04-07T17:33:08.101Z,21.65
2019-04-07T17:35:43.219Z,24.15
2019-04-07T17:38:13.401Z,21.07
2019-04-07T17:40:51.939Z,23.55
2019-04-07T17:43:31.331Z,24.80
2019-04-07T17:46:06.308Z,23.65
2019-04-07T17:48:57.220Z,22.75
2019-04-07T17:51:31.457Z,22.22
2019-04-07T17:54:02.614Z,23.27
2019-04-07T17:56:41.027Z,21.93
2019-04-07T17:59:14.252Z,21.73
2019-04-07T18:02:02.285Z,24.45
2019-04-07T18:04:36.847Z,23.70
2019-04-07T18:07:23.360Z,22.90
2019-04-07T18:09:57.403Z,28.92
2019-04-07T18:12:47.910Z,22.55
2019-04-07T18:18:00.453Z,26.73
2019-04-07T18:20:42.628Z,21.90
2019-04-07T18:23:29.848Z,23.90
2019-04-07T18:26:04.181Z,22.17
2019-04-07T18:33:53.351Z,25.82
2019-04-07T18:36:34.729Z,23.52
2019-04-07T18:39:06.625Z,24.53
2019-04-07T18:41:53.347Z,27.87
2019-04-07T18:44:38.332Z,24.27
2019-04-07T18:47:23.878Z,21.15
2019-04-07T18:50:06.322Z,22.07
2019-04-07T18:52:39.863Z,29.30
2019-04-07T18:55:13.943Z,28.10
2019-04-07T18:57:45.076Z,27.10
2019-04-07T19:00:17.043Z,23.32
2019-04-07T19:02:56.052Z,25.33
2019-04-07T19:05:31.568Z,22.30
2019-04-07T19:08:07.254Z,24.05
2019-04-07T19:13:43.223Z,21.70
2019-04-07T19:16:23.443Z,22.07
2019-04-07T19:19:10.626Z,22.52
2019-04-07T19:21:43.443Z,27.17
2019-04-07T19:26:49.914Z,28.25
2019-04-07T19:29:26.225Z,26.70
2019-04-07T19:32:11.566Z,26.07
2019-04-07T19:34:48.161Z,29.90
2019-04-07T19:37:20.172Z,25.55
2019-04-07T19:42:47.080Z,24.20
2019-04-07T19:45:16.276Z,25.57
2019-04-07T19:47:55.612Z,26.40
2019-04-07T19:50:44.906Z,30.08
2019-04-07T19:53:32.640Z,30.62
2019-04-07T19:56:03.255Z,32.60
2019-04-07T19:58:40.930Z,29.35
2019-04-07T20:01:29.003Z,27.45
2019-04-07T20:04:08.139Z,26.57
2019-04-07T20:06:39.801Z,26.00
2019-04-07T20:09:16.022Z,26.15
2019-04-07T20:11:46.259Z,28.80
2019-04-07T20:14:17.411Z,28.12
2019-04-07T20:19:20.829Z,29.12
2019-04-07T20:21:54.717Z,28.38
2019-04-07T20:24:23.859Z,30.40
2019-04-07T20:26:57.113Z,30.60
2019-04-07T20:29:28.038Z,27.62
2019-04-07T20:32:16.892Z,27.48
2019-04-07T20:34:47.202Z,30.00
2019-04-07T20:37:34.384Z,31.65
2019-04-07T20:40:23.594Z,28.67
2019-04-07T20:43:02.974Z,27.35
2019-04-07T20:45:33.183Z,38.85
2019-04-07T20:48:07.281Z,33.42
2019-04-07T20:50:43.654Z,30.02
2019-04-07T20:53:17.618Z,32.95
2019-04-07T20:55:47.774Z,28.95
2019-04-07T20:58:23.956Z,28.12
2019-04-07T21:03:29.982Z,26.62
2019-04-07T21:06:00.150Z,28.05
2019-04-07T21:08:32.000Z,27.15
2019-04-07T21:13:39.527Z,27.67
2019-04-07T21:16:23.493Z,34.92
2019-04-07T21:19:08.289Z,30.33
2019-04-07T21:21:53.760Z,31.97
2019-04-07T21:24:27.286Z,28.23
2019-04-07T21:27:01.655Z,47.05
2019-04-07T21:29:32.802Z,36.48
2019-04-07T21:32:08.810Z,38.20
2019-04-07T21:34:40.807Z,30.08
2019-04-07T21:37:16.110Z,29.48
2019-04-07T21:39:48.640Z,33.50
2019-04-07T21:42:36.960Z,54.13
2019-04-07T21:45:30.098Z,36.65
2019-04-07T21:48:00.296Z,33.70
2019-04-07T21:50:49.810Z,36.90
2019-04-07T21:53:26.571Z,49.50
2019-04-07T21:56:14.369Z,33.83
2019-04-07T21:59:01.110Z,46.95
2019-04-07T22:01:38.612Z,40.25
2019-04-07T22:04:27.229Z,40.70
2019-04-07T22:07:03.636Z,42.25
2019-04-07T22:09:40.735Z,43.15
2019-04-07T22:12:09.362Z,38.80
2019-04-07T22:14:40.954Z,37.90
2019-04-07T22:17:08.352Z,35.63
2019-04-07T22:19:36.940Z,31.10
2019-04-07T22:22:05.519Z,30.60
2019-04-07T22:24:35.983Z,32.53
2019-04-07T22:27:05.596Z,38.33
2019-04-07T22:29:34.945Z,33.50
2019-04-07T22:32:05.312Z,39.30
2019-04-07T22:34:34.104Z,33.15
2019-04-07T22:37:02.634Z,32.40
2019-04-07T22:39:33.346Z,31.15
2019-04-07T22:42:02.221Z,33.55
2019-04-07T22:44:31.427Z,32.30
2019-04-07T22:47:00.386Z,34.03
2019-04-07T22:49:32.203Z,34.25
2019-04-07T22:52:01.272Z,30.62
2019-04-07T22:54:32.728Z,30.50
2019-04-07T22:57:01.414Z,28.77
2019-04-07T22:59:30.189Z,36.48
2019-04-07T23:01:59.861Z,30.62
2019-04-07T23:04:28.419Z,30.82
2019-04-07T23:06:56.906Z,34.48
2019-04-07T23:09:25.364Z,30.70
2019-04-07T23:11:54.494Z,28.25
2019-04-07T23:14:23.337Z,34.43
2019-04-07T23:16:52.541Z,31.57
2019-04-07T23:19:21.010Z,33.90
2019-04-07T23:21:49.498Z,33.13
2019-04-07T23:24:19.229Z,32.63
2019-04-07T23:26:48.905Z,32.88
2019-04-07T23:29:17.717Z,31.82
2019-04-07T23:31:47.767Z,35.92
2019-04-07T23:34:16.937Z,31.20
2019-04-07T23:36:45.754Z,35.40
2019-04-07T23:39:15.247Z,31.23
2019-04-07T23:41:43.944Z,33.50
2019-04-07T23:44:12.973Z,29.25
2019-04-07T23:46:43.458Z,34.25
2019-04-07T23:49:13.080Z,35.45
2019-04-07T23:51:41.610Z,33.95
2019-04-07T23:54:16.626Z,31.40
2019-04-07T23:56:45.121Z,29.25
2019-04-07T23:59:14.591Z,31.10
